Time;durP1;ratioP1;P1;durP2;ratioP2;P2;SDS_P1;SDS_P2;PMS_P1;PMS_P2;Temp;Humidity;BMP_temperature;BMP_pressure;BME280_temperature;BME280_humidity;BME280_pressure;Samples;Min_cycle;Max_cycle;Signal;HPM_P1;HPM_P2
2022/05/11 00:00:08;;;;;;;3.40;1.58;;;;;;;;;;5071143;28;20429;-53
2022/05/11 00:02:34;;;;;;;4.05;1.50;;;;;;;;;;5071568;28;20086;-57
2022/05/11 00:05:00;;;;;;;6.70;2.17;;;;;;;;;;5071586;28;20135;-57
2022/05/11 00:07:26;;;;;;;2.95;1.35;;;;;;;;;;5071451;28;20035;-56
2022/05/11 00:09:52;;;;;;;3.78;1.50;;;;;;;;;;5071445;28;20048;-57
2022/05/11 00:12:18;;;;;;;11.40;2.65;;;;;;;;;;5071474;28;20075;-55
2022/05/11 00:14:45;;;;;;;3.97;1.52;;;;;;;;;;5071821;28;20436;-56
2022/05/11 00:17:12;;;;;;;3.78;1.40;;;;;;;;;;5071378;28;20060;-56
2022/05/11 00:19:38;;;;;;;6.30;1.63;;;;;;;;;;5070876;28;20398;-56
2022/05/11 00:22:04;;;;;;;4.25;1.52;;;;;;;;;;5071318;28;20029;-54
2022/05/11 00:24:30;;;;;;;5.45;1.80;;;;;;;;;;5071193;28;20111;-54
2022/05/11 00:26:56;;;;;;;5.65;1.40;;;;;;;;;;5070987;28;20089;-57
2022/05/11 00:29:22;;;;;;;6.38;1.65;;;;;;;;;;5070912;28;20033;-56
2022/05/11 00:31:48;;;;;;;4.35;1.92;;;;;;;;;;5070651;28;20119;-55
2022/05/11 00:34:14;;;;;;;5.05;1.60;;;;;;;;;;5069399;28;20538;-55
2022/05/11 00:36:41;;;;;;;2.22;1.30;;;;;;;;;;5071447;28;20051;-57
2022/05/11 00:39:09;;;;;;;4.80;1.33;;;;;;;;;;5071119;28;20125;-54
2022/05/11 00:41:35;;;;;;;4.78;1.60;;;;;;;;;;5071362;28;20547;-56
2022/05/11 00:44:01;;;;;;;4.38;1.20;;;;;;;;;;5070777;28;20025;-55
2022/05/11 00:46:39;;;;;;;2.97;1.35;;;;;;;;;;5069989;28;20032;-55
2022/05/11 00:49:34;;;;;;;2.90;1.27;;;;;;;;;;5070378;28;20027;-56
2022/05/11 00:52:03;;;;;;;4.93;1.52;;;;;;;;;;5070621;28;20028;-54
2022/05/11 00:54:31;;;;;;;6.00;1.60;;;;;;;;;;5069552;28;20032;-57
2022/05/11 00:57:01;;;;;;;4.22;1.60;;;;;;;;;;5071271;28;20044;-56
2022/05/11 00:59:31;;;;;;;3.22;1.60;;;;;;;;;;5070175;28;20028;-57
2022/05/11 01:01:58;;;;;;;5.68;1.77;;;;;;;;;;5070236;28;20039;-56
2022/05/11 01:04:25;;;;;;;4.07;1.42;;;;;;;;;;5070171;28;20032;-57
2022/05/11 01:06:51;;;;;;;4.97;1.52;;;;;;;;;;5070952;28;20122;-56
2022/05/11 01:09:17;;;;;;;3.97;1.38;;;;;;;;;;5070165;28;20094;-57
2022/05/11 01:11:51;;;;;;;5.35;1.00;;;;;;;;;;5069137;28;20040;-54
2022/05/11 01:14:19;;;;;;;3.95;1.55;;;;;;;;;;5070164;28;20029;-54
2022/05/11 01:16:46;;;;;;;4.18;1.23;;;;;;;;;;5070008;28;20071;-56
2022/05/11 01:19:15;;;;;;;10.27;1.83;;;;;;;;;;5069897;28;20601;-57
2022/05/11 01:21:50;;;;;;;3.30;1.50;;;;;;;;;;5070547;28;20024;-56
2022/05/11 01:24:25;;;;;;;7.03;1.55;;;;;;;;;;5069789;28;20102;-56
2022/05/11 01:26:51;;;;;;;4.53;1.77;;;;;;;;;;5069647;28;20507;-56
2022/05/11 01:29:17;;;;;;;3.35;1.60;;;;;;;;;;5069365;28;20557;-55
2022/05/11 01:31:43;;;;;;;3.35;1.60;;;;;;;;;;5070118;28;20081;-57
2022/05/11 01:34:10;;;;;;;3.60;1.20;;;;;;;;;;5069904;28;20024;-57
2022/05/11 01:36:38;;;;;;;3.38;1.33;;;;;;;;;;5070077;28;20123;-54
2022/05/11 01:39:05;;;;;;;4.38;1.42;;;;;;;;;;5069787;28;20560;-56
2022/05/11 01:41:34;;;;;;;2.47;1.05;;;;;;;;;;5069836;28;20082;-56
2022/05/11 01:44:02;;;;;;;5.88;1.65;;;;;;;;;;5069059;28;20471;-53
2022/05/11 01:46:28;;;;;;;3.35;1.33;;;;;;;;;;5069681;28;20043;-55
2022/05/11 01:48:54;;;;;;;3.40;1.77;;;;;;;;;;5069894;28;20478;-53
2022/05/11 01:51:21;;;;;;;5.43;1.20;;;;;;;;;;5069376;28;20024;-56
2022/05/11 01:53:47;;;;;;;2.70;1.48;;;;;;;;;;5069636;28;20124;-49
2022/05/11 01:56:14;;;;;;;3.97;1.58;;;;;;;;;;5069727;28;20542;-53
2022/05/11 01:58:40;;;;;;;3.42;1.50;;;;;;;;;;5068558;28;20162;-57
2022/05/11 02:01:07;;;;;;;3.67;1.45;;;;;;;;;;5069074;28;20111;-55
2022/05/11 02:03:33;;;;;;;5.13;1.30;;;;;;;;;;5069450;28;20119;-56
2022/05/11 02:08:44;;;;;;;3.67;1.40;;;;;;;;;;5069759;28;20055;-54
2022/05/11 02:11:11;;;;;;;2.75;1.70;;;;;;;;;;5068525;28;20197;-56
2022/05/11 02:13:37;;;;;;;3.03;1.38;;;;;;;;;;5068795;28;20119;-56
2022/05/11 02:16:04;;;;;;;3.53;1.67;;;;;;;;;;5068848;28;20128;-54
2022/05/11 02:18:30;;;;;;;2.95;1.35;;;;;;;;;;5069208;28;20139;-54
2022/05/11 02:20:56;;;;;;;2.80;1.50;;;;;;;;;;5068998;28;20029;-55
2022/05/11 02:23:23;;;;;;;3.42;1.40;;;;;;;;;;5068776;28;20143;-56
2022/05/11 02:25:50;;;;;;;2.78;1.63;;;;;;;;;;5068809;28;20020;-56
2022/05/11 02:28:17;;;;;;;3.67;1.80;;;;;;;;;;5069157;28;20028;-57
2022/05/11 02:30:43;;;;;;;3.80;1.45;;;;;;;;;;5069212;28;20039;-56
2022/05/11 02:33:10;;;;;;;5.30;2.08;;;;;;;;;;5069109;28;20052;-54
2022/05/11 02:35:37;;;;;;;2.97;1.30;;;;;;;;;;5068585;28;20028;-56
2022/05/11 02:38:04;;;;;;;4.75;1.67;;;;;;;;;;5068229;28;20111;-56
2022/05/11 02:40:32;;;;;;;3.30;1.33;;;;;;;;;;5068632;28;20107;-56
2022/05/11 02:43:01;;;;;;;2.30;1.15;;;;;;;;;;5068343;28;20031;-55
2022/05/11 02:45:27;;;;;;;3.57;1.30;;;;;;;;;;5068137;28;20653;-56
2022/05/11 02:47:54;;;;;;;3.80;1.25;;;;;;;;;;5068631;28;20434;-56
2022/05/11 02:50:25;;;;;;;3.60;1.40;;;;;;;;;;5068671;28;20036;-56
2022/05/11 02:52:51;;;;;;;2.88;1.40;;;;;;;;;;5068491;28;20039;-57
2022/05/11 02:55:17;;;;;;;2.63;1.50;;;;;;;;;;5068636;28;20067;-56
2022/05/11 02:57:43;;;;;;;2.47;1.30;;;;;;;;;;5067420;28;20032;-53
2022/05/11 03:00:12;;;;;;;2.83;1.10;;;;;;;;;;5068717;28;20365;-56
2022/05/11 03:02:38;;;;;;;4.13;1.60;;;;;;;;;;5068188;28;20053;-54
2022/05/11 03:05:04;;;;;;;2.38;1.15;;;;;;;;;;5068391;28;20457;-56
2022/05/11 03:07:30;;;;;;;3.60;1.48;;;;;;;;;;5067878;28;20123;-56
2022/05/11 03:09:57;;;;;;;4.70;1.35;;;;;;;;;;5068047;28;20601;-57
2022/05/11 03:12:23;;;;;;;5.13;1.73;;;;;;;;;;5067567;28;20135;-57
2022/05/11 03:14:49;;;;;;;2.80;1.20;;;;;;;;;;5068673;28;20021;-56
2022/05/11 03:17:16;;;;;;;3.95;1.17;;;;;;;;;;5067637;28;20056;-56
2022/05/11 03:19:44;;;;;;;6.13;1.40;;;;;;;;;;5067983;28;20119;-57
2022/05/11 03:22:11;;;;;;;3.05;1.30;;;;;;;;;;5068414;28;20036;-57
2022/05/11 03:24:37;;;;;;;2.97;1.25;;;;;;;;;;5068034;28;20544;-57
2022/05/11 03:27:03;;;;;;;2.80;1.10;;;;;;;;;;5067794;28;20066;-57
2022/05/11 03:29:29;;;;;;;2.65;1.27;;;;;;;;;;5067564;28;20136;-56
2022/05/11 03:34:41;;;;;;;2.00;1.05;;;;;;;;;;5068309;28;20086;-57
2022/05/11 03:37:09;;;;;;;3.30;1.20;;;;;;;;;;5068335;28;20032;-56
2022/05/11 03:39:35;;;;;;;3.83;1.40;;;;;;;;;;5067262;28;20031;-55
2022/05/11 03:42:02;;;;;;;3.28;1.30;;;;;;;;;;5066887;28;20028;-57
2022/05/11 03:44:28;;;;;;;2.88;1.52;;;;;;;;;;5067643;28;20017;-57
2022/05/11 03:46:54;;;;;;;3.65;1.15;;;;;;;;;;5068162;28;20070;-58
2022/05/11 03:49:21;;;;;;;3.85;1.27;;;;;;;;;;5067710;28;20107;-57
2022/05/11 03:51:47;;;;;;;3.05;1.20;;;;;;;;;;5068292;28;20040;-57
2022/05/11 03:54:13;;;;;;;4.22;1.58;;;;;;;;;;5067637;28;20025;-57
2022/05/11 03:56:39;;;;;;;2.47;1.20;;;;;;;;;;5067951;28;20060;-57
2022/05/11 03:59:05;;;;;;;3.47;1.30;;;;;;;;;;5067735;28;20441;-57
2022/05/11 04:01:31;;;;;;;3.35;1.38;;;;;;;;;;5067864;28;20486;-57
2022/05/11 04:03:57;;;;;;;3.03;1.30;;;;;;;;;;5067640;28;20039;-55
2022/05/11 04:06:23;;;;;;;2.40;1.20;;;;;;;;;;5067641;28;20394;-58
2022/05/11 04:08:49;;;;;;;3.35;1.30;;;;;;;;;;5067946;28;20133;-55
2022/05/11 04:11:16;;;;;;;4.63;1.20;;;;;;;;;;5066556;28;20487;-58
2022/05/11 04:13:42;;;;;;;3.55;1.20;;;;;;;;;;5067829;28;20051;-51
2022/05/11 04:16:08;;;;;;;3.55;1.60;;;;;;;;;;5067661;28;20391;-53
2022/05/11 04:18:35;;;;;;;3.42;1.27;;;;;;;;;;5067276;28;20021;-54
2022/05/11 04:21:02;;;;;;;3.60;1.40;;;;;;;;;;5067715;28;20033;-56
2022/05/11 04:23:28;;;;;;;2.28;1.20;;;;;;;;;;5067036;28;20103;-57
2022/05/11 04:25:55;;;;;;;3.25;1.48;;;;;;;;;;5066861;28;20180;-56
2022/05/11 04:28:21;;;;;;;3.10;1.40;;;;;;;;;;5068190;28;20028;-54
2022/05/11 04:30:47;;;;;;;2.78;1.02;;;;;;;;;;5071065;28;20118;-55
2022/05/11 04:33:13;;;;;;;3.47;1.75;;;;;;;;;;5071006;28;20507;-56
2022/05/11 04:35:39;;;;;;;3.30;1.42;;;;;;;;;;5070654;28;20048;-57
2022/05/11 04:38:06;;;;;;;4.13;1.30;;;;;;;;;;5070779;28;20074;-57
2022/05/11 04:40:34;;;;;;;3.65;1.60;;;;;;;;;;5070022;28;20479;-57
2022/05/11 04:43:06;;;;;;;2.47;1.30;;;;;;;;;;5071256;28;20036;-56
2022/05/11 04:45:32;;;;;;;2.92;1.25;;;;;;;;;;5070413;28;20032;-57
2022/05/11 04:47:58;;;;;;;4.50;1.30;;;;;;;;;;5071338;28;20028;-56
2022/05/11 04:50:25;;;;;;;3.00;1.30;;;;;;;;;;5070784;28;20128;-57
2022/05/11 04:52:52;;;;;;;3.03;1.38;;;;;;;;;;5070425;28;20032;-57
2022/05/11 04:55:18;;;;;;;3.97;1.75;;;;;;;;;;5069759;28;20111;-56
2022/05/11 04:57:44;;;;;;;4.28;1.40;;;;;;;;;;5071018;28;20166;-57
2022/05/11 05:00:13;;;;;;;4.00;1.55;;;;;;;;;;5070695;28;20048;-57
2022/05/11 05:02:40;;;;;;;8.35;2.40;;;;;;;;;;5069242;28;20471;-55
2022/05/11 05:05:08;;;;;;;8.80;3.38;;;;;;;;;;5070568;28;20469;-55
2022/05/11 05:07:34;;;;;;;12.73;3.38;;;;;;;;;;5069971;28;20043;-55
2022/05/11 05:10:07;;;;;;;11.95;3.60;;;;;;;;;;5070459;28;20052;-53
2022/05/11 05:12:34;;;;;;;11.05;3.72;;;;;;;;;;5070046;28;20028;-54
2022/05/11 05:15:00;;;;;;;13.75;3.47;;;;;;;;;;5068911;28;20589;-56
2022/05/11 05:17:26;;;;;;;22.25;5.10;;;;;;;;;;5069680;28;20104;-55
2022/05/11 05:19:52;;;;;;;13.95;3.58;;;;;;;;;;5069888;28;20119;-56
2022/05/11 05:22:18;;;;;;;7.35;2.97;;;;;;;;;;5070309;28;20059;-55
2022/05/11 05:24:44;;;;;;;17.48;4.18;;;;;;;;;;5069857;28;20060;-56
2022/05/11 05:27:11;;;;;;;11.05;3.90;;;;;;;;;;5070307;28;20190;-56
2022/05/11 05:32:23;;;;;;;8.50;4.55;;;;;;;;;;5070088;28;20039;-55
2022/05/11 05:34:49;;;;;;;11.02;4.13;;;;;;;;;;5070046;28;20621;-55
2022/05/11 05:37:16;;;;;;;12.07;4.30;;;;;;;;;;5069501;28;20475;-56
2022/05/11 05:39:42;;;;;;;13.25;4.10;;;;;;;;;;5069428;28;20025;-56
2022/05/11 05:42:09;;;;;;;9.57;3.63;;;;;;;;;;5069893;28;20108;-55
2022/05/11 05:44:37;;;;;;;10.05;3.78;;;;;;;;;;5069220;28;20458;-54
2022/05/11 05:47:06;;;;;;;9.57;3.55;;;;;;;;;;5069959;28;20111;-56
2022/05/11 05:49:32;;;;;;;7.77;3.50;;;;;;;;;;5068321;28;20048;-54
2022/05/11 05:51:59;;;;;;;15.73;3.50;;;;;;;;;;5070088;28;20350;-56
2022/05/11 05:54:25;;;;;;;10.27;3.08;;;;;;;;;;5068969;28;20115;-54
2022/05/11 05:56:52;;;;;;;7.63;3.10;;;;;;;;;;5067542;28;20036;-57
2022/05/11 05:59:18;;;;;;;12.45;3.45;;;;;;;;;;5067974;28;20047;-56
2022/05/11 06:01:44;;;;;;;7.32;3.30;;;;;;;;;;5069441;28;20031;-56
2022/05/11 06:04:10;;;;;;;6.20;2.60;;;;;;;;;;5069621;28;20103;-56
2022/05/11 06:06:36;;;;;;;6.88;3.05;;;;;;;;;;5069265;28;20960;-56
2022/05/11 06:09:03;;;;;;;5.82;2.72;;;;;;;;;;5069386;28;20127;-56
2022/05/11 06:11:30;;;;;;;6.72;3.13;;;;;;;;;;5067743;28;20606;-56
2022/05/11 06:13:57;;;;;;;9.40;2.88;;;;;;;;;;5067783;28;20043;-56
2022/05/11 06:16:23;;;;;;;11.45;2.78;;;;;;;;;;5067447;28;20036;-56
2022/05/11 06:18:49;;;;;;;9.20;3.70;;;;;;;;;;5067497;28;20115;-56
2022/05/11 06:21:16;;;;;;;11.80;3.28;;;;;;;;;;5068049;28;20024;-56
2022/05/11 06:23:42;;;;;;;12.00;3.08;;;;;;;;;;5068442;28;20351;-56
2022/05/11 06:26:09;;;;;;;24.88;3.22;;;;;;;;;;5067332;28;20123;-56
2022/05/11 06:28:40;;;;;;;24.05;3.65;;;;;;;;;;5068173;28;20380;-56
2022/05/11 06:31:06;;;;;;;17.38;3.13;;;;;;;;;;5068345;28;20036;-58
2022/05/11 06:33:33;;;;;;;20.88;4.38;;;;;;;;;;5067922;28;20071;-57
2022/05/11 06:36:00;;;;;;;29.08;4.50;;;;;;;;;;5067511;28;20035;-57
2022/05/11 06:38:26;;;;;;;22.40;3.97;;;;;;;;;;5067684;28;20062;-57
2022/05/11 06:40:53;;;;;;;24.05;4.32;;;;;;;;;;5066695;28;20033;-56
2022/05/11 06:43:18;;;;;;;27.50;4.18;;;;;;;;;;5066674;28;20577;-55
2022/05/11 06:45:45;;;;;;;22.48;4.32;;;;;;;;;;5067691;28;20032;-55
2022/05/11 06:48:14;;;;;;;23.02;3.85;;;;;;;;;;5067796;28;20028;-56
2022/05/11 06:50:42;;;;;;;17.53;3.37;;;;;;;;;;5064967;28;20033;-57
2022/05/11 06:53:12;;;;;;;21.02;3.85;;;;;;;;;;5067664;28;20032;-56
2022/05/11 07:01:12;;;;;;;11.68;2.83;;;;;;;;;;5066871;28;20042;-57
2022/05/11 07:03:40;;;;;;;10.77;2.92;;;;;;;;;;5068381;28;20479;-54
2022/05/11 07:06:06;;;;;;;17.45;2.80;;;;;;;;;;5067659;28;20074;-57
2022/05/11 07:08:36;;;;;;;16.65;2.65;;;;;;;;;;5067238;28;20055;-57
2022/05/11 07:13:47;;;;;;;9.30;2.53;;;;;;;;;;5065614;28;20047;-56
2022/05/11 07:16:14;;;;;;;7.22;1.73;;;;;;;;;;5067089;28;20048;-57
2022/05/11 07:18:41;;;;;;;8.43;2.83;;;;;;;;;;5064330;28;20031;-56
2022/05/11 07:21:07;;;;;;;13.15;2.13;;;;;;;;;;5066283;28;20548;-57
2022/05/11 07:23:34;;;;;;;9.30;1.88;;;;;;;;;;5062698;28;20104;-57
2022/05/11 07:26:00;;;;;;;5.75;1.60;;;;;;;;;;5066621;28;20056;-56
2022/05/11 07:28:26;;;;;;;8.77;1.98;;;;;;;;;;5066806;28;20416;-57
2022/05/11 07:30:53;;;;;;;10.73;2.13;;;;;;;;;;5066444;28;20458;-56
2022/05/11 07:33:19;;;;;;;10.20;1.75;;;;;;;;;;5067271;28;20483;-57
2022/05/11 07:35:45;;;;;;;9.40;2.70;;;;;;;;;;5068405;28;20433;-57
2022/05/11 07:38:13;;;;;;;8.32;2.15;;;;;;;;;;5067647;28;20025;-56
2022/05/11 07:40:39;;;;;;;8.82;1.75;;;;;;;;;;5067870;28;20036;-56
2022/05/11 07:43:06;;;;;;;11.98;2.05;;;;;;;;;;5068546;28;20036;-57
2022/05/11 07:45:32;;;;;;;9.27;1.98;;;;;;;;;;5053622;28;20032;-57
2022/05/11 07:47:58;;;;;;;11.65;2.08;;;;;;;;;;5067763;28;20103;-56
2022/05/11 07:50:24;;;;;;;11.63;2.15;;;;;;;;;;5068091;28;20545;-58
2022/05/11 07:52:50;;;;;;;8.55;2.30;;;;;;;;;;5068029;28;20042;-57
2022/05/11 07:55:17;;;;;;;10.85;1.75;;;;;;;;;;5067110;28;20056;-57
2022/05/11 08:00:29;;;;;;;7.78;1.63;;;;;;;;;;5066361;28;20039;-57
2022/05/11 08:02:55;;;;;;;14.02;1.80;;;;;;;;;;5068422;28;20115;-56
2022/05/11 08:05:22;;;;;;;8.07;1.70;;;;;;;;;;5070568;28;20532;-56
2022/05/11 08:07:50;;;;;;;13.82;1.85;;;;;;;;;;5069830;28;20467;-56
2022/05/11 08:10:18;;;;;;;14.45;2.95;;;;;;;;;;5069562;28;20071;-56
2022/05/11 08:12:44;;;;;;;14.25;2.45;;;;;;;;;;5070231;28;20573;-59
2022/05/11 08:15:13;;;;;;;10.02;2.38;;;;;;;;;;5070804;28;20052;-58
2022/05/11 08:17:41;;;;;;;11.48;1.83;;;;;;;;;;5070400;28;20466;-59
2022/05/11 08:20:09;;;;;;;13.00;2.25;;;;;;;;;;5063502;28;20041;-59
2022/05/11 08:22:36;;;;;;;9.48;2.13;;;;;;;;;;5068779;28;20128;-59
2022/05/11 08:25:02;;;;;;;15.32;2.78;;;;;;;;;;5071331;28;20029;-60
2022/05/11 08:27:29;;;;;;;11.27;2.45;;;;;;;;;;5071237;28;20059;-59
2022/05/11 08:35:29;;;;;;;10.20;1.73;;;;;;;;;;5071148;28;20043;-57
2022/05/11 08:37:55;;;;;;;12.38;1.88;;;;;;;;;;5071217;28;20371;-57
2022/05/11 08:40:39;;;;;;;15.68;1.95;;;;;;;;;;5071210;28;20024;-56
2022/05/11 08:43:07;;;;;;;8.52;1.52;;;;;;;;;;5071114;28;20032;-57
2022/05/11 08:45:40;;;;;;;14.70;2.08;;;;;;;;;;5070319;28;20099;-55
2022/05/11 08:48:11;;;;;;;9.75;1.65;;;;;;;;;;5071296;28;20716;-57
2022/05/11 08:50:42;;;;;;;8.07;1.58;;;;;;;;;;5070781;28;20040;-56
2022/05/11 08:53:21;;;;;;;9.20;1.67;;;;;;;;;;5070652;28;20409;-56
2022/05/11 08:55:48;;;;;;;7.13;2.65;;;;;;;;;;5070631;28;20078;-56
2022/05/11 08:58:23;;;;;;;9.10;1.55;;;;;;;;;;5070966;28;20483;-56
2022/05/11 09:00:50;;;;;;;8.45;1.65;;;;;;;;;;5070377;28;20120;-56
2022/05/11 09:03:16;;;;;;;6.35;1.48;;;;;;;;;;5069736;28;20577;-56
2022/05/11 09:05:42;;;;;;;9.52;1.40;;;;;;;;;;5070605;28;20124;-57
2022/05/11 09:08:10;;;;;;;12.10;2.35;;;;;;;;;;5068948;28;20591;-55
2022/05/11 09:10:37;;;;;;;7.70;1.60;;;;;;;;;;5070210;28;20123;-56
2022/05/11 09:13:05;;;;;;;12.52;1.80;;;;;;;;;;5070512;28;20039;-55
2022/05/11 09:15:43;;;;;;;7.70;1.50;;;;;;;;;;5067496;28;20052;-56
2022/05/11 09:18:09;;;;;;;6.95;1.50;;;;;;;;;;5070323;28;20115;-56
2022/05/11 09:20:35;;;;;;;6.57;2.10;;;;;;;;;;5069725;28;20661;-56
2022/05/11 09:23:03;;;;;;;5.30;1.92;;;;;;;;;;5068575;28;20459;-56
2022/05/11 09:25:30;;;;;;;11.95;2.28;;;;;;;;;;5068797;28;20622;-56
2022/05/11 09:28:14;;;;;;;8.55;1.80;;;;;;;;;;5069773;28;20478;-55
2022/05/11 09:30:55;;;;;;;10.05;1.92;;;;;;;;;;5069717;28;20039;-56
2022/05/11 09:33:26;;;;;;;8.30;1.98;;;;;;;;;;5070089;28;20398;-56
2022/05/11 09:35:52;;;;;;;6.93;1.70;;;;;;;;;;5069105;28;20037;-57
2022/05/11 09:38:18;;;;;;;6.85;2.03;;;;;;;;;;5069990;28;20597;-56
2022/05/11 09:40:54;;;;;;;11.23;2.47;;;;;;;;;;5069822;28;20031;-56
2022/05/11 09:43:46;;;;;;;8.93;1.98;;;;;;;;;;5069599;28;20029;-56
2022/05/11 09:46:17;;;;;;;10.07;2.50;;;;;;;;;;5067598;28;20041;-57
2022/05/11 09:49:02;;;;;;;10.57;2.58;;;;;;;;;;5070076;28;20099;-56
2022/05/11 09:51:33;;;;;;;18.55;2.55;;;;;;;;;;5068978;28;20040;-56
2022/05/11 09:54:03;;;;;;;13.75;2.35;;;;;;;;;;5069575;28;20033;-56
2022/05/11 09:56:38;;;;;;;19.00;2.72;;;;;;;;;;5069075;28;20024;-56
2022/05/11 09:59:19;;;;;;;15.60;3.30;;;;;;;;;;5069552;28;20024;-56
2022/05/11 10:01:47;;;;;;;13.95;2.72;;;;;;;;;;5069131;28;20628;-56
2022/05/11 10:04:13;;;;;;;12.15;2.83;;;;;;;;;;5068440;28;20033;-56
2022/05/11 10:06:52;;;;;;;11.85;2.47;;;;;;;;;;5069186;28;20675;-56
2022/05/11 10:09:22;;;;;;;9.63;2.30;;;;;;;;;;5069414;28;20078;-56
2022/05/11 10:11:53;;;;;;;8.63;2.35;;;;;;;;;;5069168;28;20060;-57
2022/05/11 10:22:41;;;;;;;11.65;2.75;;;;;;;;;;5068565;28;20555;-57
2022/05/11 10:25:07;;;;;;;9.35;2.30;;;;;;;;;;5068955;28;20526;-57
2022/05/11 10:27:41;;;;;;;12.23;2.88;;;;;;;;;;5067886;28;20028;-56
2022/05/11 10:30:08;;;;;;;13.23;2.65;;;;;;;;;;5068628;28;20402;-56
2022/05/11 10:32:43;;;;;;;14.23;3.47;;;;;;;;;;5068225;28;20078;-56
2022/05/11 10:35:15;;;;;;;14.32;3.42;;;;;;;;;;5068914;28;20025;-56
2022/05/11 10:37:47;;;;;;;17.02;3.75;;;;;;;;;;5068559;28;20013;-61
2022/05/11 10:40:18;;;;;;;9.15;2.10;;;;;;;;;;5068933;28;20432;-57
2022/05/11 10:43:04;;;;;;;5.90;2.25;;;;;;;;;;5068690;28;20109;-57
2022/05/11 10:45:47;;;;;;;11.80;2.22;;;;;;;;;;5060080;28;20108;-56
2022/05/11 10:48:13;;;;;;;10.68;2.53;;;;;;;;;;5068231;28;20055;-56
2022/05/11 10:50:57;;;;;;;9.88;2.70;;;;;;;;;;5068545;28;20566;-56
2022/05/11 10:53:43;;;;;;;10.68;2.25;;;;;;;;;;5068437;28;20044;-56
2022/05/11 10:56:19;;;;;;;6.22;1.85;;;;;;;;;;5068649;28;20315;-56
2022/05/11 10:58:46;;;;;;;10.02;2.47;;;;;;;;;;5068326;28;20141;-56
2022/05/11 11:01:13;;;;;;;9.63;2.10;;;;;;;;;;5068470;28;20048;-56
2022/05/11 11:03:39;;;;;;;12.85;2.40;;;;;;;;;;5068104;28;20028;-57
2022/05/11 11:09:06;;;;;;;13.25;2.25;;;;;;;;;;5067356;28;20055;-57
2022/05/11 11:11:38;;;;;;;13.90;2.05;;;;;;;;;;5067747;28;20123;-57
2022/05/11 11:14:08;;;;;;;9.93;2.33;;;;;;;;;;5065097;28;20143;-57
2022/05/11 11:16:36;;;;;;;11.88;2.10;;;;;;;;;;5067053;28;20028;-58
2022/05/11 11:19:03;;;;;;;11.80;2.25;;;;;;;;;;5066456;28;20431;-58
2022/05/11 11:21:30;;;;;;;9.85;1.77;;;;;;;;;;5068135;28;20108;-58
2022/05/11 11:24:11;;;;;;;10.70;2.38;;;;;;;;;;5067776;28;20028;-57
2022/05/11 11:26:57;;;;;;;12.93;2.00;;;;;;;;;;5057445;28;20131;-56
2022/05/11 11:29:27;;;;;;;9.98;1.90;;;;;;;;;;5067588;28;20035;-57
2022/05/11 11:32:00;;;;;;;7.07;1.60;;;;;;;;;;5067856;28;20025;-56
2022/05/11 11:34:29;;;;;;;8.93;1.58;;;;;;;;;;5067788;28;20023;-57
2022/05/11 11:36:55;;;;;;;5.35;1.38;;;;;;;;;;5068352;28;20499;-56
2022/05/11 11:39:40;;;;;;;6.32;1.60;;;;;;;;;;5072098;28;20025;-56
2022/05/11 11:42:07;;;;;;;7.85;1.52;;;;;;;;;;5071861;28;20030;-57
2022/05/11 11:44:46;;;;;;;7.35;1.80;;;;;;;;;;5071928;28;20755;-57
2022/05/11 11:47:27;;;;;;;7.90;1.73;;;;;;;;;;5071807;28;20024;-56
2022/05/11 11:49:55;;;;;;;10.18;1.85;;;;;;;;;;5071338;28;20039;-55
2022/05/11 11:52:41;;;;;;;6.00;1.65;;;;;;;;;;5071675;28;20111;-57
2022/05/11 11:55:19;;;;;;;13.90;1.40;;;;;;;;;;5071706;28;20513;-56
2022/05/11 11:57:46;;;;;;;5.13;1.30;;;;;;;;;;5051466;28;20192;-57
2022/05/11 12:00:21;;;;;;;8.40;1.48;;;;;;;;;;5055938;28;20123;-57
2022/05/11 12:02:47;;;;;;;3.92;1.08;;;;;;;;;;5071984;28;20067;-57
2022/05/11 12:05:37;;;;;;;11.35;1.90;;;;;;;;;;5071584;28;20509;-56
2022/05/11 12:16:44;;;;;;;22.35;2.30;;;;;;;;;;5071544;28;20150;-57
2022/05/11 12:19:11;;;;;;;;;;;;;;;;;;5071466;28;20032;-57
2022/05/11 12:21:38;;;;;;;16.10;2.63;;;;;;;;;;5071274;28;20003;-56
2022/05/11 12:24:06;;;;;;;23.25;2.28;;;;;;;;;;5071305;28;20037;-57
2022/05/11 12:26:35;;;;;;;23.40;2.50;;;;;;;;;;5070462;28;20175;-58
2022/05/11 12:31:57;;;;;;;18.67;2.42;;;;;;;;;;5071250;28;20089;-58
2022/05/11 12:34:24;;;;;;;23.55;2.28;;;;;;;;;;5070952;28;20128;-58
2022/05/11 12:36:53;;;;;;;15.82;1.80;;;;;;;;;;5070675;28;20095;-58
2022/05/11 12:39:29;;;;;;;9.43;1.80;;;;;;;;;;5062449;28;20075;-58
2022/05/11 12:41:56;;;;;;;10.55;2.08;;;;;;;;;;5070554;28;20032;-58
2022/05/11 12:44:28;;;;;;;13.65;1.70;;;;;;;;;;5070958;28;20025;-55
2022/05/11 12:46:56;;;;;;;9.77;1.70;;;;;;;;;;5070816;28;20052;-58
2022/05/11 12:49:22;;;;;;;10.43;2.55;;;;;;;;;;5069690;28;20399;-57
2022/05/11 12:51:52;;;;;;;13.82;2.05;;;;;;;;;;5070643;28;20025;-57
2022/05/11 12:54:20;;;;;;;9.35;1.38;;;;;;;;;;5069390;28;20467;-58
2022/05/11 12:56:56;;;;;;;14.82;2.35;;;;;;;;;;5070612;28;20024;-57
2022/05/11 12:59:24;;;;;;;9.88;2.08;;;;;;;;;;5068050;28;20025;-58
2022/05/11 13:01:50;;;;;;;15.75;2.03;;;;;;;;;;5070577;28;20103;-58
2022/05/11 13:04:18;;;;;;;9.93;1.75;;;;;;;;;;5070467;28;20028;-59
2022/05/11 13:06:45;;;;;;;12.00;1.70;;;;;;;;;;5070741;28;20024;-58
2022/05/11 13:09:18;;;;;;;16.23;1.90;;;;;;;;;;5070548;28;20048;-57
2022/05/11 13:11:45;;;;;;;15.35;2.28;;;;;;;;;;5070428;28;20040;-58
2022/05/11 13:14:15;;;;;;;6.78;1.48;;;;;;;;;;5070298;28;20041;-58
2022/05/11 13:16:45;;;;;;;5.93;1.38;;;;;;;;;;5070571;28;20024;-58
2022/05/11 13:19:32;;;;;;;9.65;1.70;;;;;;;;;;5070166;28;20060;-58
2022/05/11 13:21:59;;;;;;;9.45;2.22;;;;;;;;;;5050231;28;20036;-59
2022/05/11 13:24:41;;;;;;;10.45;1.52;;;;;;;;;;5066256;28;20402;-58
2022/05/11 13:27:26;;;;;;;10.68;1.30;;;;;;;;;;5050409;28;20025;-59
2022/05/11 13:30:14;;;;;;;6.35;1.23;;;;;;;;;;5067989;28;20312;-58
2022/05/11 13:32:45;;;;;;;11.80;1.98;;;;;;;;;;5069541;28;20033;-58
2022/05/11 13:35:22;;;;;;;11.65;1.85;;;;;;;;;;5069029;28;20031;-58
2022/05/11 13:37:56;;;;;;;13.52;1.65;;;;;;;;;;5070131;28;20063;-58
2022/05/11 13:40:40;;;;;;;23.35;3.00;;;;;;;;;;5069789;28;20069;-58
2022/05/11 13:43:19;;;;;;;14.68;2.60;;;;;;;;;;5070376;28;20025;-58
2022/05/11 13:45:56;;;;;;;29.73;3.75;;;;;;;;;;5070016;28;20024;-57
2022/05/11 13:48:26;;;;;;;12.23;3.15;;;;;;;;;;5069665;28;20471;-58
2022/05/11 13:50:53;;;;;;;12.48;2.97;;;;;;;;;;5068690;28;20118;-58
2022/05/11 13:53:29;;;;;;;12.90;3.40;;;;;;;;;;5069399;28;20115;-58
2022/05/11 13:56:14;;;;;;;14.25;3.53;;;;;;;;;;5069108;28;20463;-58
2022/05/11 13:58:43;;;;;;;9.93;2.70;;;;;;;;;;5069536;28;20024;-57
2022/05/11 14:01:11;;;;;;;14.75;3.15;;;;;;;;;;5069166;28;20039;-57
2022/05/11 14:03:39;;;;;;;11.52;3.38;;;;;;;;;;5069145;28;20490;-57
2022/05/11 14:06:07;;;;;;;14.32;3.78;;;;;;;;;;5058142;28;20112;-58
2022/05/11 14:08:34;;;;;;;14.77;3.38;;;;;;;;;;5069035;28;20483;-58
2022/05/11 14:11:00;;;;;;;11.95;3.40;;;;;;;;;;5069064;28;20045;-57
2022/05/11 14:13:26;;;;;;;17.60;3.70;;;;;;;;;;5069040;28;20024;-58
2022/05/11 14:15:53;;;;;;;13.45;3.53;;;;;;;;;;5068428;28;20032;-57
2022/05/11 14:18:20;;;;;;;9.63;3.83;;;;;;;;;;5069116;28;20036;-61
2022/05/11 14:20:46;;;;;;;20.15;3.55;;;;;;;;;;5069280;28;20024;-58
2022/05/11 14:23:14;;;;;;;17.80;4.03;;;;;;;;;;5068591;28;20032;-59
2022/05/11 14:25:40;;;;;;;14.82;3.40;;;;;;;;;;5068261;28;20025;-58
2022/05/11 14:28:06;;;;;;;17.02;3.38;;;;;;;;;;5067738;28;20038;-59
2022/05/11 14:30:34;;;;;;;10.48;3.08;;;;;;;;;;5066327;28;20032;-58
2022/05/11 14:33:00;;;;;;;12.80;3.95;;;;;;;;;;5067416;28;20066;-58
2022/05/11 14:35:27;;;;;;;17.55;4.10;;;;;;;;;;5068236;28;20020;-58
2022/05/11 14:37:53;;;;;;;15.48;3.55;;;;;;;;;;5068923;28;20033;-58
2022/05/11 14:40:21;;;;;;;14.73;3.67;;;;;;;;;;5067237;28;20064;-59
2022/05/11 14:42:47;;;;;;;17.92;4.38;;;;;;;;;;5068698;28;20127;-59
2022/05/11 14:45:14;;;;;;;16.13;3.85;;;;;;;;;;5069069;28;20104;-58
2022/05/11 14:47:43;;;;;;;17.02;3.35;;;;;;;;;;5068341;28;20427;-58
2022/05/11 14:50:12;;;;;;;16.05;2.70;;;;;;;;;;5068521;28;20051;-58
2022/05/11 14:52:38;;;;;;;12.32;3.17;;;;;;;;;;5067917;28;20112;-59
2022/05/11 14:55:06;;;;;;;13.88;3.53;;;;;;;;;;5069021;28;20032;-57
2022/05/11 15:03:02;;;;;;;14.40;3.25;;;;;;;;;;5068552;28;20039;-58
2022/05/11 15:05:28;;;;;;;17.75;3.53;;;;;;;;;;5068214;28;20060;-58
2022/05/11 15:07:54;;;;;;;18.38;3.88;;;;;;;;;;5066749;28;20048;-58
2022/05/11 15:10:20;;;;;;;14.07;3.13;;;;;;;;;;5066533;28;20494;-58
2022/05/11 15:15:30;;;;;;;11.68;3.33;;;;;;;;;;5068527;28;20127;-58
2022/05/11 15:17:57;;;;;;;13.02;3.40;;;;;;;;;;5068036;28;20107;-59
2022/05/11 15:20:25;;;;;;;16.15;3.72;;;;;;;;;;5062531;28;20031;-59
2022/05/11 15:22:52;;;;;;;13.60;3.63;;;;;;;;;;5067798;28;20111;-58
2022/05/11 15:25:18;;;;;;;13.82;3.15;;;;;;;;;;5067628;28;20025;-58
2022/05/11 15:27:47;;;;;;;13.20;3.42;;;;;;;;;;5065345;28;20039;-59
2022/05/11 15:30:14;;;;;;;17.00;3.60;;;;;;;;;;5066669;28;20037;-58
2022/05/11 15:32:40;;;;;;;15.02;3.72;;;;;;;;;;5068286;28;20028;-58
2022/05/11 15:35:08;;;;;;;11.18;3.28;;;;;;;;;;5068235;28;20798;-58
2022/05/11 15:37:34;;;;;;;17.13;3.97;;;;;;;;;;5067473;28;20470;-58
2022/05/11 15:40:01;;;;;;;13.82;3.00;;;;;;;;;;5067849;28;20033;-58
2022/05/11 15:42:28;;;;;;;13.27;3.40;;;;;;;;;;5067549;28;20028;-59